Newport Beach, California
Current Conditions -  °F | °C
As of 5:53 AM on Friday 19 Dec 2014 (Local Time) from KSNA Reporting Station
Scattered Clouds Scattered Clouds  
Wind Chill: 52°   Ceiling: Unl
Heat Index: 52°   Visibility: 10mi
Dew Point: 45°   Wind: 0mph
Humidity: 77%   Direction: NA
Pressure: 30.22"   Gusts: NA
Location:  33.62°N, 117.93°W
Report Text: KSNA 191353Z 00000KT 10SM FEW180 SCT250 11/07 A3022 RMK AO2 SLP231 T01110072
Loading
Personal Weather Stations






























Interactive Weather Map New forecast layout! Learn more

10-Day Weather Forecast

Advertisements
Track Severe Weather on mobile